Time;durP1;ratioP1;P1;durP2;ratioP2;P2;SDS_P1;SDS_P2;PMS_P1;PMS_P2;Temp;Humidity;BMP_temperature;BMP_pressure;BME280_temperature;BME280_humidity;BME280_pressure;Samples;Min_cycle;Max_cycle;Signal;HPM_P1;HPM_P2
2022/08/20 00:01:46;;;;;;;;;;;26.40;47.50;;;;;;1509812;77;760;-68
2022/08/20 00:03:48;;;;;;;;;;;26.40;47.50;;;;;;1510001;76;1543;-68
2022/08/20 00:05:52;;;;;;;;;;;26.40;47.50;;;;;;1515090;76;1940;-69
2022/08/20 00:07:54;;;;;;;;;;;26.30;47.60;;;;;;1514993;77;739;-68
2022/08/20 00:09:56;;;;;;;;;;;26.30;47.60;;;;;;1514675;76;733;-68
2022/08/20 00:11:57;;;;;;;;;;;26.30;47.60;;;;;;1512310;77;728;-67
2022/08/20 00:14:01;;;;;;;;;;;26.30;47.60;;;;;;1520386;76;1131;-68
2022/08/20 00:16:04;;;;;;;;;;;26.30;47.60;;;;;;1512526;77;709;-68
2022/08/20 00:18:06;;;;;;;;;;;26.30;47.50;;;;;;1514583;77;893;-67
2022/08/20 00:20:09;;;;;;;;;;;26.30;47.60;;;;;;1518882;77;813;-68
2022/08/20 00:22:12;;;;;;;;;;;26.30;47.60;;;;;;1531852;76;1213;-68
2022/08/20 00:24:14;;;;;;;;;;;26.30;47.60;;;;;;1531809;76;1142;-67
2022/08/20 00:26:16;;;;;;;;;;;26.30;47.60;;;;;;1528661;76;1945;-68
2022/08/20 00:28:18;;;;;;;;;;;26.30;47.70;;;;;;1534913;76;783;-67
2022/08/20 00:30:20;;;;;;;;;;;26.30;47.60;;;;;;1529383;76;736;-67
2022/08/20 00:32:22;;;;;;;;;;;26.40;47.60;;;;;;1535499;76;804;-68
2022/08/20 00:34:24;;;;;;;;;;;26.30;47.60;;;;;;1539162;76;1138;-67
2022/08/20 00:36:26;;;;;;;;;;;26.30;47.60;;;;;;1529857;76;830;-68
2022/08/20 00:38:27;;;;;;;;;;;26.30;47.60;;;;;;1534597;76;702;-67
2022/08/20 00:40:31;;;;;;;;;;;26.30;47.60;;;;;;1533084;76;792;-68
2022/08/20 00:42:40;;;;;;;;;;;26.40;47.60;;;;;;1540474;76;707;-67
2022/08/20 00:44:46;;;;;;;;;;;26.40;47.60;;;;;;1537113;76;1847;-68
2022/08/20 00:46:48;;;;;;;;;;;26.30;47.60;;;;;;1528960;76;1951;-68
2022/08/20 00:48:51;;;;;;;;;;;26.30;47.60;;;;;;1537823;76;730;-68
2022/08/20 00:50:53;;;;;;;;;;;26.30;47.60;;;;;;1527042;76;720;-68
2022/08/20 00:52:55;;;;;;;;;;;26.40;47.60;;;;;;1529047;76;1131;-68
2022/08/20 00:54:58;;;;;;;;;;;26.30;47.60;;;;;;1520402;76;695;-68
2022/08/20 00:57:04;;;;;;;;;;;26.30;47.60;;;;;;1540036;76;801;-68
2022/08/20 00:59:10;;;;;;;;;;;26.30;47.70;;;;;;1528566;76;722;-68
2022/08/20 01:01:11;;;;;;;;;;;26.30;47.70;;;;;;1522603;76;1696;-68
2022/08/20 01:03:13;;;;;;;;;;;26.30;47.60;;;;;;1529564;76;1136;-69
2022/08/20 01:05:16;;;;;;;;;;;26.30;47.70;;;;;;1525329;76;825;-69
2022/08/20 01:07:19;;;;;;;;;;;26.30;47.70;;;;;;1531676;76;1935;-68
2022/08/20 01:09:21;;;;;;;;;;;26.40;47.60;;;;;;1532171;76;757;-68
2022/08/20 01:11:32;;;;;;;;;;;26.40;47.60;;;;;;1534817;76;791;-68
2022/08/20 01:13:26;;;;;;;;;;;26.30;47.60;;;;;;1527369;76;1555;-68
2022/08/20 01:15:29;;;;;;;;;;;26.30;47.70;;;;;;1529865;76;744;-68
2022/08/20 01:17:31;;;;;;;;;;;26.30;47.60;;;;;;1523056;76;684;-68
2022/08/20 01:19:38;;;;;;;;;;;26.30;47.60;;;;;;1535250;76;780;-67
2022/08/20 01:21:39;;;;;;;;;;;26.30;47.70;;;;;;1536942;76;838;-67
2022/08/20 01:23:43;;;;;;;;;;;26.40;47.60;;;;;;1527427;76;1117;-67
2022/08/20 01:25:47;;;;;;;;;;;26.30;47.70;;;;;;1525141;76;727;-66
2022/08/20 01:27:49;;;;;;;;;;;26.30;47.70;;;;;;1520767;76;1957;-68
2022/08/20 01:29:50;;;;;;;;;;;26.30;47.60;;;;;;1526396;76;771;-67
2022/08/20 01:31:52;;;;;;;;;;;26.30;47.60;;;;;;1530654;76;732;-67
2022/08/20 01:33:54;;;;;;;;;;;26.40;47.60;;;;;;1534484;76;1129;-66
2022/08/20 01:35:56;;;;;;;;;;;26.30;47.60;;;;;;1529934;76;736;-66
2022/08/20 01:37:58;;;;;;;;;;;26.30;47.60;;;;;;1538060;76;736;-67
2022/08/20 01:40:00;;;;;;;;;;;26.30;47.60;;;;;;1536610;76;683;-66
2022/08/20 01:42:11;;;;;;;;;;;26.30;47.60;;;;;;1533762;76;723;-66
2022/08/20 01:44:13;;;;;;;;;;;26.30;47.50;;;;;;1525434;76;1200;-67
2022/08/20 01:46:15;;;;;;;;;;;26.30;47.60;;;;;;1530916;76;1931;-68
2022/08/20 01:48:18;;;;;;;;;;;26.40;47.60;;;;;;1526193;76;781;-69
2022/08/20 01:50:21;;;;;;;;;;;26.30;47.60;;;;;;1525999;76;761;-69
2022/08/20 01:52:28;;;;;;;;;;;26.30;47.60;;;;;;1540957;76;725;-69
2022/08/20 01:54:30;;;;;;;;;;;26.30;47.60;;;;;;1535442;76;1161;-69
2022/08/20 01:56:32;;;;;;;;;;;26.30;47.60;;;;;;1511817;77;1534;-68
2022/08/20 01:58:35;;;;;;;;;;;26.40;47.50;;;;;;1529644;76;795;-69
2022/08/20 02:00:36;;;;;;;;;;;26.30;47.50;;;;;;1532550;76;725;-68
2022/08/20 02:02:39;;;;;;;;;;;26.30;47.50;;;;;;1533077;76;679;-69
2022/08/20 02:04:41;;;;;;;;;;;26.30;47.60;;;;;;1533593;76;1121;-67
2022/08/20 02:06:44;;;;;;;;;;;26.30;47.60;;;;;;1528918;76;1925;-68
2022/08/20 02:08:46;;;;;;;;;;;26.30;47.60;;;;;;1530694;76;719;-68
2022/08/20 02:10:48;;;;;;;;;;;26.30;47.50;;;;;;1533950;76;762;-68
2022/08/20 02:12:50;;;;;;;;;;;26.30;47.50;;;;;;1533371;76;797;-68
2022/08/20 02:14:52;;;;;;;;;;;26.30;47.50;;;;;;1534445;76;1200;-66
2022/08/20 02:16:57;;;;;;;;;;;26.30;47.60;;;;;;1535564;76;802;-66
2022/08/20 02:19:01;;;;;;;;;;;26.40;47.50;;;;;;1531439;76;1498;-67
2022/08/20 02:21:03;;;;;;;;;;;26.30;47.50;;;;;;1524050;77;806;-67
2022/08/20 02:23:05;;;;;;;;;;;26.30;47.40;;;;;;1517943;76;1091;-67
2022/08/20 02:25:07;;;;;;;;;;;26.30;47.50;;;;;;1518416;76;797;-67
2022/08/20 02:27:09;;;;;;;;;;;26.40;47.40;;;;;;1518863;76;1930;-68
2022/08/20 02:29:11;;;;;;;;;;;26.40;47.40;;;;;;1524420;76;825;-68
2022/08/20 02:31:13;;;;;;;;;;;26.40;47.40;;;;;;1527520;76;831;-68
2022/08/20 02:33:16;;;;;;;;;;;26.40;47.40;;;;;;1515311;76;1097;-68
2022/08/20 02:35:18;;;;;;;;;;;26.40;47.40;;;;;;1526127;76;745;-68
2022/08/20 02:37:20;;;;;;;;;;;26.40;47.30;;;;;;1517794;76;758;-67
2022/08/20 02:39:22;;;;;;;;;;;26.30;47.30;;;;;;1519082;77;766;-65
2022/08/20 02:41:24;;;;;;;;;;;26.30;47.30;;;;;;1527196;76;807;-67
2022/08/20 02:43:25;;;;;;;;;;;26.30;47.30;;;;;;1523750;73;2091;-66
2022/08/20 02:45:27;;;;;;;;;;;26.30;47.30;;;;;;1516851;76;718;-67
2022/08/20 02:47:30;;;;;;;;;;;26.40;47.30;;;;;;1523506;76;1934;-68
2022/08/20 02:49:32;;;;;;;;;;;26.30;47.30;;;;;;1524753;76;750;-69
2022/08/20 02:51:33;;;;;;;;;;;26.30;47.30;;;;;;1522088;76;707;-68
2022/08/20 02:53:37;;;;;;;;;;;26.30;47.20;;;;;;1495415;77;1554;-68
2022/08/20 02:55:38;;;;;;;;;;;26.30;47.20;;;;;;1523076;76;753;-68
2022/08/20 02:57:40;;;;;;;;;;;26.30;47.20;;;;;;1523507;77;782;-69
2022/08/20 02:59:44;;;;;;;;;;;26.30;47.20;;;;;;1524312;76;886;-68
2022/08/20 03:01:47;;;;;;;;;;;26.40;47.20;;;;;;1523915;77;695;-66
2022/08/20 03:03:49;;;;;;;;;;;26.30;47.10;;;;;;1523005;76;1155;-67
2022/08/20 03:05:52;;;;;;;;;;;26.30;47.20;;;;;;1522426;77;719;-68
2022/08/20 03:07:55;;;;;;;;;;;26.30;47.20;;;;;;1523301;76;1937;-68
2022/08/20 03:09:57;;;;;;;;;;;26.30;47.20;;;;;;1523181;77;747;-67
2022/08/20 03:11:59;;;;;;;;;;;26.30;47.20;;;;;;1522949;76;798;-68
2022/08/20 03:14:01;;;;;;;;;;;26.40;47.20;;;;;;1524139;76;1191;-68
2022/08/20 03:16:03;;;;;;;;;;;26.40;47.20;;;;;;1523288;77;829;-66
2022/08/20 03:18:05;;;;;;;;;;;26.30;47.20;;;;;;1522362;76;738;-68
2022/08/20 03:20:07;;;;;;;;;;;26.30;47.20;;;;;;1523593;77;761;-67
2022/08/20 03:22:09;;;;;;;;;;;26.30;47.20;;;;;;1524019;76;740;-67
2022/08/20 03:24:11;;;;;;;;;;;26.30;47.20;;;;;;1520996;76;1068;-67
2022/08/20 03:26:13;;;;;;;;;;;26.30;47.20;;;;;;1525855;76;737;-68
2022/08/20 03:28:15;;;;;;;;;;;26.30;47.30;;;;;;1521647;77;1901;-68
2022/08/20 03:30:18;;;;;;;;;;;26.30;47.30;;;;;;1518630;77;752;-68
2022/08/20 03:32:20;;;;;;;;;;;26.20;47.30;;;;;;1523191;76;833;-69
2022/08/20 03:34:21;;;;;;;;;;;26.20;47.20;;;;;;1523529;76;1138;-69
2022/08/20 03:36:24;;;;;;;;;;;26.30;47.20;;;;;;1520633;76;807;-68
2022/08/20 03:38:26;;;;;;;;;;;26.30;47.30;;;;;;1519491;76;734;-68
2022/08/20 03:40:29;;;;;;;;;;;26.20;47.30;;;;;;1525345;77;703;-67
2022/08/20 03:42:31;;;;;;;;;;;26.20;47.30;;;;;;1522838;76;765;-68
2022/08/20 03:44:33;;;;;;;;;;;26.30;47.30;;;;;;1522908;77;1187;-68
2022/08/20 03:46:35;;;;;;;;;;;26.30;47.30;;;;;;1523243;76;822;-68
2022/08/20 03:48:37;;;;;;;;;;;26.20;47.30;;;;;;1523199;77;1940;-67
2022/08/20 03:50:40;;;;;;;;;;;26.30;47.30;;;;;;1523159;76;717;-68
2022/08/20 03:52:42;;;;;;;;;;;26.30;47.30;;;;;;1523183;76;853;-68
2022/08/20 03:54:44;;;;;;;;;;;26.20;47.20;;;;;;1521925;77;1160;-66
2022/08/20 03:56:46;;;;;;;;;;;26.30;47.20;;;;;;1522924;76;799;-68
2022/08/20 03:58:48;;;;;;;;;;;26.30;47.20;;;;;;1523118;76;746;-69
2022/08/20 04:00:50;;;;;;;;;;;26.20;47.20;;;;;;1524223;77;776;-67
2022/08/20 04:02:52;;;;;;;;;;;26.20;47.20;;;;;;1522988;76;809;-67
2022/08/20 04:04:54;;;;;;;;;;;26.30;47.20;;;;;;1523326;76;1132;-67
2022/08/20 04:06:56;;;;;;;;;;;26.20;47.30;;;;;;1522725;77;776;-67
2022/08/20 04:08:58;;;;;;;;;;;26.20;47.30;;;;;;1523016;76;1948;-67
2022/08/20 04:10:59;;;;;;;;;;;26.20;47.30;;;;;;1523103;76;783;-68
2022/08/20 04:13:01;;;;;;;;;;;26.30;47.30;;;;;;1520373;77;748;-67
2022/08/20 04:15:04;;;;;;;;;;;26.30;47.30;;;;;;1522158;76;1184;-68
2022/08/20 04:17:06;;;;;;;;;;;26.20;47.30;;;;;;1521136;76;814;-67
2022/08/20 04:19:08;;;;;;;;;;;26.30;47.30;;;;;;1523822;77;773;-67
2022/08/20 04:21:10;;;;;;;;;;;26.20;47.30;;;;;;1523918;76;612;-68
2022/08/20 04:23:13;;;;;;;;;;;26.30;47.30;;;;;;1523091;76;718;-67
2022/08/20 04:25:15;;;;;;;;;;;26.20;47.30;;;;;;1522959;76;1083;-68
2022/08/20 04:27:18;;;;;;;;;;;26.20;47.30;;;;;;1523505;76;1928;-67
2022/08/20 04:29:24;;;;;;;;;;;26.20;47.30;;;;;;1519610;76;850;-69
2022/08/20 04:31:32;;;;;;;;;;;26.20;47.30;;;;;;1522547;76;718;-67
2022/08/20 04:33:32;;;;;;;;;;;26.20;47.30;;;;;;1522415;77;1687;-68
2022/08/20 04:35:34;;;;;;;;;;;26.30;47.50;;;;;;1521888;76;746;-68
2022/08/20 04:37:38;;;;;;;;;;;26.30;47.60;;;;;;1523746;77;794;-67
2022/08/20 04:39:40;;;;;;;;;;;26.30;47.60;;;;;;1524791;76;676;-67
2022/08/20 04:41:41;;;;;;;;;;;26.30;47.50;;;;;;1525771;77;768;-71
2022/08/20 04:43:43;;;;;;;;;;;26.30;47.60;;;;;;1523097;76;1174;-70
2022/08/20 04:45:45;;;;;;;;;;;26.30;47.50;;;;;;1521856;77;1602;-67
2022/08/20 04:47:48;;;;;;;;;;;26.40;47.60;;;;;;1524387;76;1918;-68
2022/08/20 04:49:50;;;;;;;;;;;26.40;47.50;;;;;;1523573;76;778;-68
2022/08/20 04:51:53;;;;;;;;;;;26.30;47.60;;;;;;1522890;76;772;-68
2022/08/20 04:53:56;;;;;;;;;;;26.40;47.60;;;;;;1523749;76;1159;-68
2022/08/20 04:55:58;;;;;;;;;;;26.40;47.60;;;;;;1524254;76;703;-67
2022/08/20 04:58:04;;;;;;;;;;;26.30;47.50;;;;;;1519152;76;780;-68
2022/08/20 05:00:07;;;;;;;;;;;26.30;47.60;;;;;;1527975;77;736;-67
2022/08/20 05:02:09;;;;;;;;;;;26.30;47.60;;;;;;1522703;76;659;-69
2022/08/20 05:04:11;;;;;;;;;;;26.40;47.60;;;;;;1523839;76;1120;-68
2022/08/20 05:06:14;;;;;;;;;;;26.30;47.60;;;;;;1519155;77;823;-68
2022/08/20 05:08:17;;;;;;;;;;;26.30;47.50;;;;;;1523698;76;1942;-68
2022/08/20 05:10:19;;;;;;;;;;;26.30;47.50;;;;;;1524888;76;706;-68
2022/08/20 05:12:20;;;;;;;;;;;26.40;47.60;;;;;;1524409;76;770;-68
2022/08/20 05:14:22;;;;;;;;;;;26.40;47.60;;;;;;1526571;77;1162;-70
2022/08/20 05:16:24;;;;;;;;;;;26.40;47.70;;;;;;1531516;76;821;-70
2022/08/20 05:18:26;;;;;;;;;;;26.30;47.60;;;;;;1524155;76;720;-67
2022/08/20 05:20:30;;;;;;;;;;;26.40;47.60;;;;;;1523141;76;670;-70
2022/08/20 05:22:32;;;;;;;;;;;26.30;47.70;;;;;;1519003;76;727;-70
2022/08/20 05:24:33;;;;;;;;;;;26.30;47.70;;;;;;1522842;76;1176;-70
2022/08/20 05:26:35;;;;;;;;;;;26.30;47.70;;;;;;1523460;76;787;-70
2022/08/20 05:28:38;;;;;;;;;;;26.30;47.80;;;;;;1523242;76;1932;-70
2022/08/20 05:30:40;;;;;;;;;;;26.40;47.80;;;;;;1524402;76;809;-70
2022/08/20 05:32:42;;;;;;;;;;;26.30;47.80;;;;;;1521886;76;756;-68
2022/08/20 05:34:43;;;;;;;;;;;26.30;47.80;;;;;;1522821;77;1160;-69
2022/08/20 05:36:47;;;;;;;;;;;26.40;48.00;;;;;;1524548;77;841;-65
2022/08/20 05:38:50;;;;;;;;;;;26.40;47.80;;;;;;1523303;76;835;-68
2022/08/20 05:40:52;;;;;;;;;;;26.30;47.80;;;;;;1523332;76;1552;-68
2022/08/20 05:42:54;;;;;;;;;;;26.40;47.80;;;;;;1525929;76;839;-69
2022/08/20 05:44:55;;;;;;;;;;;26.40;47.80;;;;;;1514862;76;1081;-69
2022/08/20 05:46:57;;;;;;;;;;;26.40;47.90;;;;;;1523885;76;767;-68
2022/08/20 05:49:00;;;;;;;;;;;26.40;47.80;;;;;;1522330;76;1946;-68
2022/08/20 05:51:02;;;;;;;;;;;26.40;47.80;;;;;;1532394;76;778;-67
2022/08/20 05:53:04;;;;;;;;;;;26.40;47.80;;;;;;1524091;76;782;-68
2022/08/20 05:55:06;;;;;;;;;;;26.40;47.90;;;;;;1522938;77;1120;-68
2022/08/20 05:57:08;;;;;;;;;;;26.30;47.80;;;;;;1525131;77;675;-68
2022/08/20 05:59:11;;;;;;;;;;;26.40;47.80;;;;;;1523941;76;730;-68
2022/08/20 06:01:13;;;;;;;;;;;26.30;47.90;;;;;;1522432;76;812;-68
2022/08/20 06:05:34;;;;;;;;;;;26.40;47.90;;;;;;1518857;76;1633;-68
2022/08/20 06:07:37;;;;;;;;;;;26.30;47.90;;;;;;1522702;76;761;-69
2022/08/20 06:09:39;;;;;;;;;;;26.40;48.00;;;;;;1522513;76;1930;-68
2022/08/20 06:11:41;;;;;;;;;;;26.40;47.90;;;;;;1524665;76;674;-68
2022/08/20 06:13:43;;;;;;;;;;;26.30;48.00;;;;;;1523015;77;1159;-69
2022/08/20 06:15:45;;;;;;;;;;;26.30;48.00;;;;;;1521952;77;823;-66
2022/08/20 06:17:46;;;;;;;;;;;26.30;48.00;;;;;;1521643;76;813;-67
2022/08/20 06:19:48;;;;;;;;;;;26.30;48.00;;;;;;1522903;77;809;-66
2022/08/20 06:21:50;;;;;;;;;;;26.30;48.00;;;;;;1523288;76;712;-69
2022/08/20 06:23:52;;;;;;;;;;;26.30;48.00;;;;;;1513354;76;1196;-68
2022/08/20 06:25:54;;;;;;;;;;;26.30;48.00;;;;;;1524808;77;719;-68
2022/08/20 06:27:56;;;;;;;;;;;26.30;48.10;;;;;;1524511;76;1938;-69
2022/08/20 06:29:58;;;;;;;;;;;26.30;48.00;;;;;;1523412;76;797;-69
2022/08/20 06:32:00;;;;;;;;;;;26.30;48.10;;;;;;1519071;76;727;-68
2022/08/20 06:34:02;;;;;;;;;;;26.30;48.10;;;;;;1525077;76;1143;-67
2022/08/20 06:36:04;;;;;;;;;;;26.30;48.10;;;;;;1524706;77;739;-66
2022/08/20 06:38:06;;;;;;;;;;;26.40;48.00;;;;;;1522818;76;1584;-66
2022/08/20 06:40:12;;;;;;;;;;;26.40;47.80;;;;;;1489377;78;735;-66
2022/08/20 06:42:14;;;;;;;;;;;26.40;47.80;;;;;;1524040;76;662;-66
2022/08/20 06:44:16;;;;;;;;;;;26.40;47.80;;;;;;1524121;76;1175;-65
2022/08/20 06:46:18;;;;;;;;;;;26.40;47.90;;;;;;1525790;76;782;-67
2022/08/20 06:48:20;;;;;;;;;;;26.30;47.70;;;;;;1525603;76;1944;-66
2022/08/20 06:50:23;;;;;;;;;;;26.30;47.60;;;;;;1532503;76;728;-65
2022/08/20 06:52:25;;;;;;;;;;;26.30;47.80;;;;;;1528644;77;777;-63
2022/08/20 06:54:27;;;;;;;;;;;26.40;47.40;;;;;;1520537;77;1183;-64
2022/08/20 06:56:29;;;;;;;;;;;26.40;47.40;;;;;;1523360;76;705;-64
2022/08/20 06:58:31;;;;;;;;;;;26.40;47.40;;;;;;1524915;77;780;-64
2022/08/20 07:00:33;;;;;;;;;;;26.30;47.40;;;;;;1522908;77;773;-66
2022/08/20 07:02:35;;;;;;;;;;;26.30;47.30;;;;;;1524069;76;776;-65
2022/08/20 07:04:37;;;;;;;;;;;26.30;47.40;;;;;;1523911;76;1150;-66
2022/08/20 07:06:39;;;;;;;;;;;26.30;47.40;;;;;;1524765;77;721;-67
2022/08/20 07:08:41;;;;;;;;;;;26.30;47.50;;;;;;1523079;77;1921;-65
2022/08/20 07:10:43;;;;;;;;;;;26.30;47.60;;;;;;1524563;76;740;-65
2022/08/20 07:12:45;;;;;;;;;;;26.30;47.60;;;;;;1517221;77;727;-63
2022/08/20 07:14:47;;;;;;;;;;;26.30;47.60;;;;;;1522449;77;1135;-65
2022/08/20 07:16:49;;;;;;;;;;;26.20;47.70;;;;;;1523997;76;781;-64
2022/08/20 07:18:51;;;;;;;;;;;26.20;47.70;;;;;;1522446;76;717;-64
2022/08/20 07:20:55;;;;;;;;;;;26.30;47.80;;;;;;1522041;76;739;-64
2022/08/20 07:22:56;;;;;;;;;;;26.30;47.80;;;;;;1519963;76;1712;-65
2022/08/20 07:24:58;;;;;;;;;;;26.30;47.90;;;;;;1523239;77;1168;-63
2022/08/20 07:27:00;;;;;;;;;;;26.20;47.90;;;;;;1526205;76;797;-64
2022/08/20 07:29:02;;;;;;;;;;;26.20;48.00;;;;;;1523807;77;1920;-68
2022/08/20 07:33:25;;;;;;;;;;;26.20;48.10;;;;;;1522050;76;1631;-67
2022/08/20 07:35:27;;;;;;;;;;;26.20;48.20;;;;;;1522364;76;795;-69
2022/08/20 07:37:29;;;;;;;;;;;26.20;48.40;;;;;;1522977;76;736;-71
2022/08/20 07:39:31;;;;;;;;;;;26.20;48.40;;;;;;1525064;76;818;-70
2022/08/20 07:41:33;;;;;;;;;;;26.20;48.40;;;;;;1522822;77;776;-70
2022/08/20 07:43:35;;;;;;;;;;;26.20;48.40;;;;;;1523876;76;1156;-70
2022/08/20 07:45:37;;;;;;;;;;;26.20;48.40;;;;;;1522516;77;737;-69
2022/08/20 07:47:40;;;;;;;;;;;26.20;48.30;;;;;;1526456;76;821;-71
2022/08/20 07:49:42;;;;;;;;;;;26.20;48.40;;;;;;1530949;77;1917;-65
2022/08/20 07:51:44;;;;;;;;;;;26.20;48.40;;;;;;1522951;77;718;-67
2022/08/20 07:53:46;;;;;;;;;;;26.20;48.40;;;;;;1524404;77;1162;-68
2022/08/20 07:55:48;;;;;;;;;;;26.10;48.40;;;;;;1524802;77;796;-67
2022/08/20 07:57:50;;;;;;;;;;;26.10;48.40;;;;;;1523800;77;775;-68
2022/08/20 07:59:52;;;;;;;;;;;26.20;48.40;;;;;;1522944;77;810;-68
2022/08/20 08:01:54;;;;;;;;;;;26.20;48.40;;;;;;1524584;76;769;-67
2022/08/20 08:03:56;;;;;;;;;;;26.10;48.50;;;;;;1523674;76;1163;-70
2022/08/20 08:05:59;;;;;;;;;;;26.20;48.50;;;;;;1523339;76;793;-68
2022/08/20 08:08:01;;;;;;;;;;;26.10;48.40;;;;;;1522115;77;782;-66
2022/08/20 08:10:03;;;;;;;;;;;26.10;48.50;;;;;;1523382;77;1934;-68
2022/08/20 08:12:06;;;;;;;;;;;26.10;48.60;;;;;;1523474;76;793;-68
2022/08/20 08:14:08;;;;;;;;;;;26.10;48.60;;;;;;1520359;77;1139;-68
2022/08/20 08:16:10;;;;;;;;;;;26.10;48.60;;;;;;1522069;77;717;-68
2022/08/20 08:18:14;;;;;;;;;;;26.00;48.60;;;;;;1518510;77;807;-68
2022/08/20 08:20:16;;;;;;;;;;;26.00;48.70;;;;;;1522655;76;2011;-69
2022/08/20 08:22:18;;;;;;;;;;;26.00;48.60;;;;;;1521060;76;792;-68
2022/08/20 08:24:20;;;;;;;;;;;26.10;48.70;;;;;;1522699;77;1189;-68
2022/08/20 08:26:22;;;;;;;;;;;26.00;48.70;;;;;;1524544;77;781;-68
2022/08/20 08:28:24;;;;;;;;;;;26.10;48.70;;;;;;1524560;77;718;-69
2022/08/20 08:30:27;;;;;;;;;;;26.10;48.60;;;;;;1523630;76;1922;-69
2022/08/20 08:32:30;;;;;;;;;;;26.10;48.70;;;;;;1523023;76;718;-68
2022/08/20 08:34:33;;;;;;;;;;;26.00;48.70;;;;;;1525105;76;1163;-69
2022/08/20 08:36:35;;;;;;;;;;;26.10;48.80;;;;;;1522607;77;672;-70
2022/08/20 08:38:37;;;;;;;;;;;26.00;48.70;;;;;;1523120;77;751;-69
2022/08/20 08:40:39;;;;;;;;;;;26.10;48.70;;;;;;1525474;76;891;-70
2022/08/20 08:42:46;;;;;;;;;;;26.00;48.70;;;;;;1524903;76;699;-68
2022/08/20 08:44:48;;;;;;;;;;;26.00;48.70;;;;;;1505563;76;2225;-66
2022/08/20 08:46:51;;;;;;;;;;;26.10;48.70;;;;;;1480777;78;679;-68
2022/08/20 08:48:54;;;;;;;;;;;26.00;48.70;;;;;;1503699;77;1974;-67
2022/08/20 08:50:58;;;;;;;;;;;26.00;48.70;;;;;;1497780;77;727;-68
2022/08/20 08:53:00;;;;;;;;;;;26.00;48.70;;;;;;1505214;77;761;-69
2022/08/20 08:55:03;;;;;;;;;;;26.00;48.80;;;;;;1512462;76;1185;-69
2022/08/20 08:57:06;;;;;;;;;;;26.00;48.80;;;;;;1513496;76;685;-70
2022/08/20 08:59:08;;;;;;;;;;;26.00;48.80;;;;;;1499713;77;712;-71
2022/08/20 09:01:11;;;;;;;;;;;26.00;48.90;;;;;;1543795;75;710;-71
2022/08/20 09:03:21;;;;;;;;;;;26.00;48.90;;;;;;1535664;75;753;-69
2022/08/20 09:05:23;;;;;;;;;;;26.10;48.90;;;;;;1536313;75;1904;-70
2022/08/20 09:07:26;;;;;;;;;;;26.10;49.00;;;;;;1535954;75;711;-70
2022/08/20 09:09:29;;;;;;;;;;;26.00;48.90;;;;;;1538468;75;1919;-69
2022/08/20 09:11:31;;;;;;;;;;;26.00;48.90;;;;;;1537232;75;675;-71
2022/08/20 09:13:32;;;;;;;;;;;26.00;48.90;;;;;;1538244;75;716;-69
2022/08/20 09:15:34;;;;;;;;;;;26.00;48.90;;;;;;1543708;75;1071;-68
2022/08/20 09:17:36;;;;;;;;;;;26.00;48.80;;;;;;1534525;75;658;-69
2022/08/20 09:19:38;;;;;;;;;;;26.00;48.90;;;;;;1541530;75;1033;-69
2022/08/20 09:21:40;;;;;;;;;;;26.00;48.80;;;;;;1536931;75;753;-69
2022/08/20 09:23:42;;;;;;;;;;;26.00;48.80;;;;;;1537946;76;693;-69
2022/08/20 09:25:44;;;;;;;;;;;26.00;48.90;;;;;;1536729;76;1478;-68
2022/08/20 09:27:46;;;;;;;;;;;26.00;48.90;;;;;;1531581;75;746;-69
2022/08/20 09:29:49;;;;;;;;;;;26.00;48.90;;;;;;1528136;76;1939;-70
2022/08/20 09:31:50;;;;;;;;;;;26.00;48.80;;;;;;1514881;76;723;-70
2022/08/20 09:33:52;;;;;;;;;;;26.00;48.80;;;;;;1520352;76;1116;-70
2022/08/20 09:35:54;;;;;;;;;;;26.00;48.90;;;;;;1519927;76;739;-70
2022/08/20 09:37:56;;;;;;;;;;;26.00;48.90;;;;;;1549468;74;685;-69
2022/08/20 09:39:58;;;;;;;;;;;25.90;48.40;;;;;;1556617;74;772;-68
2022/08/20 09:42:08;;;;;;;;;;;26.00;49.10;;;;;;1552777;74;719;-68
2022/08/20 09:44:10;;;;;;;;;;;26.00;49.10;;;;;;1564778;74;1658;-69
2022/08/20 09:46:12;;;;;;;;;;;26.00;49.20;;;;;;1552028;74;772;-72
2022/08/20 09:48:13;;;;;;;;;;;26.00;49.20;;;;;;1543471;74;704;-70
2022/08/20 09:50:15;;;;;;;;;;;26.00;49.30;;;;;;1545749;74;1927;-68
2022/08/20 09:52:19;;;;;;;;;;;26.10;49.30;;;;;;1552384;74;728;-70
2022/08/20 09:54:21;;;;;;;;;;;26.10;49.40;;;;;;1552456;74;1185;-71
2022/08/20 09:56:23;;;;;;;;;;;26.10;49.50;;;;;;1557726;75;642;-70
2022/08/20 09:58:38;;;;;;;;;;;26.10;49.40;;;;;;1551793;76;720;-69
2022/08/20 10:00:40;;;;;;;;;;;26.10;49.50;;;;;;1558840;74;656;-69
2022/08/20 10:02:42;;;;;;;;;;;26.20;49.60;;;;;;1544295;74;728;-70
2022/08/20 10:04:43;;;;;;;;;;;26.20;49.60;;;;;;1546861;74;1130;-70
2022/08/20 10:06:45;;;;;;;;;;;26.10;49.60;;;;;;1556967;74;687;-69
2022/08/20 10:08:48;;;;;;;;;;;26.10;49.50;;;;;;1548056;74;723;-69
2022/08/20 10:10:50;;;;;;;;;;;26.10;49.60;;;;;;1554295;74;1935;-68
2022/08/20 10:12:51;;;;;;;;;;;26.20;49.50;;;;;;1559902;75;720;-70
2022/08/20 10:14:54;;;;;;;;;;;26.10;49.60;;;;;;1560508;74;1122;-69
2022/08/20 10:16:59;;;;;;;;;;;26.10;49.70;;;;;;1555101;76;734;-68
2022/08/20 10:19:01;;;;;;;;;;;26.10;49.60;;;;;;1554573;74;743;-68
2022/08/20 10:21:03;;;;;;;;;;;26.10;49.60;;;;;;1556413;74;659;-70
2022/08/20 10:23:05;;;;;;;;;;;26.20;49.70;;;;;;1559213;74;1422;-68
2022/08/20 10:25:07;;;;;;;;;;;26.10;49.60;;;;;;1547304;74;1198;-69
2022/08/20 10:27:09;;;;;;;;;;;26.10;49.60;;;;;;1554876;74;688;-69
2022/08/20 10:29:11;;;;;;;;;;;26.00;49.70;;;;;;1547753;74;682;-70
2022/08/20 10:31:12;;;;;;;;;;;26.00;49.80;;;;;;1551067;74;1951;-68
2022/08/20 10:33:14;;;;;;;;;;;26.10;49.80;;;;;;1544988;74;727;-69
2022/08/20 10:35:16;;;;;;;;;;;26.00;49.90;;;;;;1549806;74;1249;-67
2022/08/20 10:37:20;;;;;;;;;;;26.00;49.90;;;;;;1564931;74;799;-71
2022/08/20 10:39:22;;;;;;;;;;;26.00;50.00;;;;;;1551268;74;762;-71
2022/08/20 10:41:24;;;;;;;;;;;26.10;50.00;;;;;;1546700;74;700;-71
2022/08/20 10:43:26;;;;;;;;;;;26.00;50.00;;;;;;1551996;74;786;-70
2022/08/20 10:45:28;;;;;;;;;;;26.00;49.90;;;;;;1556753;74;1148;-69
